createdAt,value
2022-12-05T00:00:44.201Z,95791.56
2022-12-05T00:03:13.354Z,95792.13
2022-12-05T00:05:43.932Z,95788.75
2022-12-05T00:08:13.689Z,95793.81
2022-12-05T00:10:43.540Z,95794.63
2022-12-05T00:13:14.229Z,95795.63
2022-12-05T00:15:44.200Z,95803.16
2022-12-05T00:18:13.363Z,95804.88
2022-12-05T00:20:49.004Z,95808.84
2022-12-05T00:23:20.208Z,95815.75
2022-12-05T00:25:49.461Z,95808.56
2022-12-05T00:28:20.521Z,95815.41
2022-12-05T00:30:49.880Z,95811.84
2022-12-05T00:33:18.999Z,95809.78
2022-12-05T00:35:48.321Z,95803.56
2022-12-05T00:38:17.436Z,95804.31
2022-12-05T00:40:46.548Z,95802.66
2022-12-05T00:43:15.608Z,95801.75
2022-12-05T00:45:46.126Z,95795.16
2022-12-05T00:48:15.307Z,95795.00
2022-12-05T00:50:44.396Z,95794.63
2022-12-05T00:53:13.489Z,95796.50
2022-12-05T00:55:42.508Z,95797.84
2022-12-05T00:58:11.672Z,95795.88
2022-12-05T01:00:41.247Z,95789.34
2022-12-05T01:03:12.000Z,95783.63
2022-12-05T01:05:41.803Z,95783.72
2022-12-05T01:08:12.225Z,95786.81
2022-12-05T01:10:41.433Z,95767.81
2022-12-05T01:13:10.523Z,95773.72
2022-12-05T01:15:40.037Z,95773.53
2022-12-05T01:18:09.378Z,95779.28
2022-12-05T01:20:43.076Z,95775.63
2022-12-05T01:23:12.997Z,95768.97
2022-12-05T01:25:42.923Z,95770.28
2022-12-05T01:28:12.128Z,95769.91
2022-12-05T01:30:42.349Z,95774.81
2022-12-05T01:33:12.080Z,95771.53
2022-12-05T01:35:43.353Z,95766.91
2022-12-05T01:38:13.379Z,95769.09
2022-12-05T01:40:43.139Z,95771.44
2022-12-05T01:43:17.451Z,95762.88
2022-12-05T01:45:48.483Z,95768.94
2022-12-05T01:48:20.904Z,95773.03
2022-12-05T01:50:52.488Z,95769.41
2022-12-05T01:53:22.064Z,95773.78
2022-12-05T01:55:52.320Z,95764.78
2022-12-05T01:58:22.275Z,95766.13
2022-12-05T02:00:51.902Z,95768.63
2022-12-05T02:03:23.146Z,95766.38
2022-12-05T02:05:58.952Z,95767.59
2022-12-05T02:08:30.202Z,95771.28
2022-12-05T02:11:00.103Z,95767.00
2022-12-05T02:13:49.274Z,95773.09
2022-12-05T02:16:29.204Z,95777.59
2022-12-05T02:19:11.741Z,95769.91
2022-12-05T02:22:06.783Z,95765.28
2022-12-05T02:24:55.323Z,95764.19
2022-12-05T02:27:49.707Z,95761.88
2022-12-05T02:30:22.438Z,95770.16
2022-12-05T02:33:10.466Z,95764.47
2022-12-05T02:35:48.751Z,95758.94
2022-12-05T02:38:28.003Z,95756.56
2022-12-05T02:41:06.284Z,95763.84
2022-12-05T02:43:42.733Z,95763.97
2022-12-05T02:46:18.156Z,95763.44
2022-12-05T02:48:51.072Z,95750.03
2022-12-05T02:51:23.879Z,95748.41
2022-12-05T02:53:59.281Z,95751.19
2022-12-05T02:56:31.440Z,95754.09
2022-12-05T02:59:02.200Z,95752.72
2022-12-05T03:01:34.258Z,95751.63
2022-12-05T03:04:06.600Z,95757.13
2022-12-05T03:06:39.130Z,95751.81
2022-12-05T03:09:12.053Z,95749.38
2022-12-05T03:11:44.979Z,95745.81
2022-12-05T03:14:21.874Z,95749.41
2022-12-05T03:16:55.562Z,95739.50
2022-12-05T03:19:28.311Z,95747.25
2022-12-05T03:22:02.838Z,95750.69
2022-12-05T03:24:36.177Z,95744.66
2022-12-05T03:27:12.940Z,95748.09
2022-12-05T03:29:49.126Z,95753.56
2022-12-05T03:32:26.240Z,95748.28
2022-12-05T03:35:05.496Z,95744.25
2022-12-05T03:37:44.954Z,95746.75
2022-12-05T03:40:28.068Z,95742.63
2022-12-05T03:43:03.027Z,95742.47
2022-12-05T03:45:40.798Z,95736.78
2022-12-05T03:48:17.122Z,95740.84
2022-12-05T03:50:49.454Z,95741.63
2022-12-05T03:53:24.663Z,95742.03
2022-12-05T03:56:00.906Z,95742.97
2022-12-05T03:58:36.577Z,95745.06
2022-12-05T04:01:08.538Z,95741.97
2022-12-05T04:03:45.373Z,95742.25
2022-12-05T04:06:23.467Z,95749.31
2022-12-05T04:08:58.469Z,95742.66
2022-12-05T04:11:32.460Z,95738.72
2022-12-05T04:14:07.078Z,95736.81
2022-12-05T04:16:59.056Z,95730.78
2022-12-05T04:19:53.970Z,95735.72
2022-12-05T04:22:23.720Z,95731.97
2022-12-05T04:25:13.117Z,95729.63
2022-12-05T04:27:51.204Z,95730.78
2022-12-05T04:30:24.847Z,95731.44
2022-12-05T04:33:01.708Z,95730.97
2022-12-05T04:35:37.899Z,95732.47
2022-12-05T04:38:13.480Z,95736.28
2022-12-05T04:40:50.626Z,95733.28
2022-12-05T04:43:22.481Z,95738.16
2022-12-05T04:45:54.291Z,95735.38
2022-12-05T04:48:27.145Z,95733.22
2022-12-05T04:50:59.065Z,95739.63
2022-12-05T04:53:31.830Z,95747.50
2022-12-05T04:56:04.315Z,95748.19
2022-12-05T04:58:34.224Z,95757.81
2022-12-05T05:01:10.411Z,95756.44
2022-12-05T05:03:44.458Z,95767.91
2022-12-05T05:06:15.847Z,95764.88
2022-12-05T05:08:50.440Z,95769.09
2022-12-05T05:11:22.524Z,95762.69
2022-12-05T05:13:52.014Z,95764.69
2022-12-05T05:16:24.250Z,95764.88
2022-12-05T05:18:54.822Z,95765.47
2022-12-05T05:21:27.827Z,95767.09
2022-12-05T05:23:57.632Z,95781.28
2022-12-05T05:26:28.217Z,95783.28
2022-12-05T05:28:59.189Z,95787.19
2022-12-05T05:31:28.590Z,95783.38
2022-12-05T05:33:58.445Z,95791.44
2022-12-05T05:36:29.893Z,95798.03
2022-12-05T05:39:01.097Z,95784.66
2022-12-05T05:41:32.817Z,95786.75
2022-12-05T05:44:02.424Z,95794.69
2022-12-05T05:46:34.528Z,95790.34
2022-12-05T05:49:04.358Z,95795.69
2022-12-05T05:51:35.412Z,95785.69
2022-12-05T05:54:07.083Z,95791.69
2022-12-05T05:56:38.718Z,95787.69
2022-12-05T05:59:09.128Z,95796.03
2022-12-05T06:01:38.885Z,95800.19
2022-12-05T06:04:08.505Z,95793.81
2022-12-05T06:06:39.679Z,95783.09
2022-12-05T06:09:09.751Z,95793.78
2022-12-05T06:11:39.481Z,95789.84
2022-12-05T06:14:08.741Z,95793.25
2022-12-05T06:16:38.141Z,95793.78
2022-12-05T06:19:07.409Z,95789.84
2022-12-05T06:21:39.179Z,95793.25
2022-12-05T06:24:09.454Z,95798.03
2022-12-05T06:26:38.773Z,95801.66
2022-12-05T06:29:07.926Z,95795.06
2022-12-05T06:31:38.104Z,95806.72
2022-12-05T06:34:07.416Z,95795.84
2022-12-05T06:36:38.483Z,95794.13
2022-12-05T06:39:07.851Z,95804.78
2022-12-05T06:41:37.222Z,95806.25
2022-12-05T06:44:07.020Z,95806.56
2022-12-05T06:46:36.288Z,95805.84
2022-12-05T06:49:05.521Z,95809.53
2022-12-05T06:51:35.186Z,95809.22
2022-12-05T06:54:06.422Z,95807.03
2022-12-05T06:56:35.724Z,95806.03
2022-12-05T06:59:05.089Z,95811.72
2022-12-05T07:01:41.800Z,95811.53
2022-12-05T07:04:16.898Z,95815.88
2022-12-05T07:06:50.441Z,95811.63
2022-12-05T07:09:23.781Z,95807.84
2022-12-05T07:11:53.795Z,95810.91
2022-12-05T07:14:46.406Z,95809.59
2022-12-05T07:17:13.733Z,95816.25
2022-12-05T07:19:42.953Z,95820.59
2022-12-05T07:22:15.756Z,95818.34
2022-12-05T07:24:47.407Z,95812.81
2022-12-05T07:27:23.302Z,95811.00
2022-12-05T07:29:57.536Z,95811.28
2022-12-05T07:32:27.941Z,95805.56
2022-12-05T07:34:57.814Z,95803.19
2022-12-05T07:37:27.202Z,95805.44
2022-12-05T07:39:57.982Z,95813.16
2022-12-05T07:42:27.373Z,95810.72
2022-12-05T07:44:56.542Z,95813.91
2022-12-05T07:47:25.935Z,95817.25
2022-12-05T07:49:55.265Z,95812.81
2022-12-05T07:52:24.559Z,95820.16
2022-12-05T07:54:53.589Z,95829.59
2022-12-05T07:57:24.761Z,95826.97
2022-12-05T07:59:53.738Z,95836.41
2022-12-05T08:02:22.763Z,95825.13
2022-12-05T08:04:51.834Z,95825.13
2022-12-05T08:07:20.957Z,95828.03
2022-12-05T08:09:50.137Z,95826.22
2022-12-05T08:12:19.948Z,95827.59
2022-12-05T08:14:50.612Z,95839.38
2022-12-05T08:17:19.863Z,95839.00
2022-12-05T08:19:49.020Z,95831.56
2022-12-05T08:22:21.755Z,95827.81
2022-12-05T08:24:56.096Z,95838.00
2022-12-05T08:27:25.575Z,95838.91
2022-12-05T08:29:57.649Z,95826.06
2022-12-05T08:32:27.625Z,95826.13
2022-12-05T08:34:56.770Z,95826.13
2022-12-05T08:37:26.004Z,95827.00
2022-12-05T08:39:55.166Z,95820.56
2022-12-05T08:42:27.307Z,95828.75
2022-12-05T08:44:57.961Z,95836.94
2022-12-05T08:47:28.153Z,95821.56
2022-12-05T08:50:00.843Z,95828.91
2022-12-05T08:52:31.688Z,95836.47
2022-12-05T08:55:01.410Z,95824.66
2022-12-05T08:57:33.574Z,95827.03
2022-12-05T09:00:07.168Z,95840.13
2022-12-05T09:02:36.394Z,95829.41
2022-12-05T09:05:26.095Z,95829.25
2022-12-05T09:07:55.603Z,95825.63
2022-12-05T09:10:24.996Z,95824.25
2022-12-05T09:12:54.379Z,95824.09
2022-12-05T09:15:25.082Z,95817.34
2022-12-05T09:17:54.907Z,95813.94
2022-12-05T09:20:24.553Z,95813.19
2022-12-05T09:22:55.104Z,95816.00
2022-12-05T09:25:24.235Z,95814.53
2022-12-05T09:28:04.584Z,95816.78
2022-12-05T09:30:35.276Z,95814.22
2022-12-05T09:33:05.049Z,95813.53
2022-12-05T09:35:34.247Z,95804.75
2022-12-05T09:38:03.335Z,95797.72
2022-12-05T09:40:43.851Z,95791.47
2022-12-05T09:43:22.437Z,95796.41
2022-12-05T09:46:06.604Z,95790.13
2022-12-05T09:48:35.969Z,95784.22
2022-12-05T09:51:06.897Z,95790.78
2022-12-05T09:53:39.155Z,95782.09
2022-12-05T09:56:16.624Z,95780.63
2022-12-05T09:58:48.041Z,95781.19
2022-12-05T10:01:33.230Z,95776.22
2022-12-05T10:04:19.269Z,95775.69
2022-12-05T10:06:57.933Z,95775.84
2022-12-05T10:09:41.362Z,95780.25
2022-12-05T10:12:17.154Z,95775.69
2022-12-05T10:14:57.814Z,95783.56
2022-12-05T10:17:34.862Z,95779.97
2022-12-05T10:20:07.220Z,95775.84
2022-12-05T10:22:43.213Z,95775.69
2022-12-05T10:25:16.625Z,95775.13
2022-12-05T10:27:52.399Z,95772.72
2022-12-05T10:30:24.131Z,95767.63
2022-12-05T10:32:57.401Z,95767.06
2022-12-05T10:35:29.109Z,95764.44
2022-12-05T10:38:00.902Z,95776.25
2022-12-05T10:40:40.150Z,95772.22
2022-12-05T10:43:12.406Z,95763.16
2022-12-05T10:45:44.954Z,95763.31
2022-12-05T10:48:17.718Z,95761.91
2022-12-05T10:50:50.072Z,95753.75
2022-12-05T10:53:22.603Z,95751.97
2022-12-05T10:56:28.767Z,95755.06
2022-12-05T10:58:59.713Z,95748.53
2022-12-05T11:01:30.918Z,95745.53
2022-12-05T11:04:16.033Z,95737.50
2022-12-05T11:06:53.020Z,95742.34
2022-12-05T11:09:23.747Z,95739.28
2022-12-05T11:12:18.687Z,95743.59
2022-12-05T11:15:03.326Z,95732.09
2022-12-05T11:17:35.944Z,95735.38
2022-12-05T11:20:37.436Z,95731.91
2022-12-05T11:23:24.353Z,95724.56
2022-12-05T11:25:54.516Z,95723.66
2022-12-05T11:28:41.617Z,95719.94
2022-12-05T11:31:28.479Z,95712.84
2022-12-05T11:34:05.484Z,95714.69
2022-12-05T11:36:41.903Z,95711.72
2022-12-05T11:39:14.563Z,95702.38
2022-12-05T11:42:02.001Z,95704.78
2022-12-05T11:44:52.552Z,95698.69
2022-12-05T11:47:32.037Z,95693.09
2022-12-05T11:50:19.839Z,95702.53
2022-12-05T11:53:14.050Z,95690.69
2022-12-05T11:55:47.599Z,95685.00
2022-12-05T11:58:35.784Z,95680.00
2022-12-05T12:01:18.656Z,95686.06
2022-12-05T12:04:08.864Z,95677.16
2022-12-05T12:06:51.732Z,95677.78
2022-12-05T12:09:39.351Z,95677.78
2022-12-05T12:12:20.197Z,95668.69
2022-12-05T12:15:01.235Z,95667.06
2022-12-05T12:17:45.265Z,95663.56
2022-12-05T12:20:25.279Z,95662.81
2022-12-05T12:23:11.015Z,95658.72
2022-12-05T12:25:54.767Z,95660.09
2022-12-05T12:28:41.086Z,95663.38
2022-12-05T12:31:35.601Z,95660.59
2022-12-05T12:34:25.718Z,95657.84
2022-12-05T12:37:03.787Z,95650.69
2022-12-05T12:39:44.800Z,95647.44
2022-12-05T12:42:44.029Z,95656.97
2022-12-05T12:45:54.839Z,95655.78
2022-12-05T12:48:40.848Z,95651.28
2022-12-05T12:51:15.504Z,95641.94
2022-12-05T12:54:01.015Z,95656.09
2022-12-05T12:56:39.939Z,95647.19
2022-12-05T12:59:24.436Z,95646.31
2022-12-05T13:02:01.128Z,95641.47
2022-12-05T13:04:40.834Z,95648.81
2022-12-05T13:07:16.024Z,95650.41
2022-12-05T13:09:51.986Z,95649.63
2022-12-05T13:12:27.628Z,95651.03
2022-12-05T13:15:02.144Z,95648.81
2022-12-05T13:17:35.013Z,95647.19
2022-12-05T13:20:08.928Z,95648.63
2022-12-05T13:22:39.134Z,95649.63
2022-12-05T13:25:09.102Z,95643.94
2022-12-05T13:27:39.228Z,95656.84
2022-12-05T13:30:20.792Z,95656.59
2022-12-05T13:33:00.778Z,95654.91
2022-12-05T13:35:50.790Z,95653.13
2022-12-05T13:38:42.334Z,95662.03
2022-12-05T13:41:29.557Z,95655.56
2022-12-05T13:44:06.417Z,95650.31
2022-12-05T13:46:41.134Z,95650.94
2022-12-05T13:49:21.686Z,95658.75
2022-12-05T13:51:51.408Z,95659.19
2022-12-05T13:54:24.771Z,95657.41
2022-12-05T13:56:58.805Z,95661.47
2022-12-05T14:00:05.232Z,95656.22
2022-12-05T14:02:57.789Z,95661.34
2022-12-05T14:05:47.264Z,95657.41
2022-12-05T14:08:55.225Z,95661.31
2022-12-05T14:11:25.135Z,95669.19
2022-12-05T14:13:59.112Z,95665.38
2022-12-05T14:16:46.234Z,95662.22
2022-12-05T14:19:53.819Z,95663.75
2022-12-05T14:23:01.548Z,95662.72
2022-12-05T14:25:57.436Z,95659.41
2022-12-05T14:28:46.166Z,95664.50
2022-12-05T14:31:35.231Z,95659.84
2022-12-05T14:34:18.157Z,95651.56
2022-12-05T14:37:02.888Z,95662.59
2022-12-05T14:39:44.108Z,95666.28
2022-12-05T14:42:27.753Z,95663.22
2022-12-05T14:44:59.993Z,95659.16
2022-12-05T14:47:33.923Z,95656.03
2022-12-05T14:50:25.257Z,95661.50
2022-12-05T14:53:16.625Z,95659.53
2022-12-05T14:55:47.729Z,95654.84
2022-12-05T14:58:23.702Z,95661.34
2022-12-05T15:01:03.602Z,95654.63
2022-12-05T15:03:35.881Z,95663.84
2022-12-05T15:06:08.373Z,95653.88
2022-12-05T15:08:46.856Z,95658.59
2022-12-05T15:11:28.847Z,95648.16
2022-12-05T15:14:04.614Z,95647.94
2022-12-05T15:16:38.671Z,95646.84
2022-12-05T15:19:16.281Z,95643.78
2022-12-05T15:21:48.716Z,95640.31
2022-12-05T15:24:19.760Z,95650.41
2022-12-05T15:26:51.171Z,95647.31
2022-12-05T15:29:28.544Z,95649.22
2022-12-05T15:32:00.804Z,95643.69
2022-12-05T15:34:33.837Z,95645.13
2022-12-05T15:37:11.608Z,95646.13
2022-12-05T15:39:56.978Z,95642.44
2022-12-05T15:42:30.164Z,95641.41
2022-12-05T15:45:21.334Z,95643.22
2022-12-05T15:47:57.339Z,95637.72
2022-12-05T15:50:33.428Z,95637.34
2022-12-05T15:53:08.204Z,95641.97
2022-12-05T15:55:43.718Z,95645.31
2022-12-05T15:58:27.321Z,95644.50
2022-12-05T16:01:13.139Z,95655.06
2022-12-05T16:03:48.139Z,95651.19
2022-12-05T16:06:24.562Z,95651.88
2022-12-05T16:08:54.996Z,95662.66
2022-12-05T16:11:24.895Z,95662.66
2022-12-05T16:13:58.627Z,95660.84
2022-12-05T16:16:33.586Z,95656.59
2022-12-05T16:19:07.314Z,95658.47
2022-12-05T16:21:39.529Z,95658.47
2022-12-05T16:24:19.125Z,95653.34
2022-12-05T16:27:00.191Z,95652.19
2022-12-05T16:29:31.056Z,95652.13
2022-12-05T16:32:08.085Z,95644.47
2022-12-05T16:34:38.091Z,95641.47
2022-12-05T16:37:08.541Z,95637.22
2022-12-05T16:39:37.961Z,95635.53
2022-12-05T16:42:26.453Z,95641.09
2022-12-05T16:45:02.357Z,95632.91
2022-12-05T16:48:02.230Z,95638.59
2022-12-05T16:50:33.249Z,95632.50
2022-12-05T16:53:03.948Z,95629.81
2022-12-05T16:55:37.258Z,95632.91
2022-12-05T16:58:08.110Z,95634.50
2022-12-05T17:00:37.401Z,95639.16
2022-12-05T17:03:33.391Z,95644.66
2022-12-05T17:06:02.859Z,95646.22
2022-12-05T17:08:32.723Z,95643.03
2022-12-05T17:11:03.888Z,95648.31
2022-12-05T17:13:34.409Z,95648.75
2022-12-05T17:16:04.158Z,95649.75
2022-12-05T17:18:35.414Z,95653.16
2022-12-05T17:21:05.222Z,95648.47
2022-12-05T17:23:34.797Z,95648.28
2022-12-05T17:26:05.597Z,95648.88
2022-12-05T17:28:35.095Z,95643.78
2022-12-05T17:31:04.579Z,95643.53
2022-12-05T17:33:36.693Z,95644.25
2022-12-05T17:36:07.626Z,95639.00
2022-12-05T17:38:37.348Z,95647.28
2022-12-05T17:41:08.258Z,95649.03
2022-12-05T17:43:44.626Z,95650.50
2022-12-05T17:46:17.137Z,95645.38
2022-12-05T17:48:48.784Z,95652.06
2022-12-05T17:51:19.312Z,95652.69
2022-12-05T17:53:48.906Z,95657.75
2022-12-05T17:56:18.998Z,95649.31
2022-12-05T17:58:48.597Z,95658.72
2022-12-05T18:01:20.501Z,95657.53
2022-12-05T18:03:52.700Z,95666.66
2022-12-05T18:06:22.424Z,95664.09
2022-12-05T18:08:52.138Z,95670.75
2022-12-05T18:11:21.818Z,95675.66
2022-12-05T18:13:52.002Z,95672.38
2022-12-05T18:16:21.727Z,95670.63
2022-12-05T18:18:53.198Z,95678.75
2022-12-05T18:21:22.887Z,95674.91
2022-12-05T18:23:53.525Z,95675.38
2022-12-05T18:26:23.440Z,95678.88
2022-12-05T18:28:55.216Z,95676.66
2022-12-05T18:31:25.070Z,95674.25
2022-12-05T18:33:56.525Z,95671.25
2022-12-05T18:36:26.664Z,95675.72
2022-12-05T18:38:58.630Z,95670.03
2022-12-05T18:41:28.483Z,95670.63
2022-12-05T18:43:58.760Z,95668.19
2022-12-05T18:46:29.912Z,95672.03
2022-12-05T18:49:14.523Z,95666.16
2022-12-05T18:51:48.244Z,95668.94
2022-12-05T18:54:19.292Z,95666.50
2022-12-05T18:56:51.297Z,95659.63
2022-12-05T18:59:23.069Z,95655.19
2022-12-05T19:01:53.681Z,95655.56
2022-12-05T19:04:25.652Z,95657.59
2022-12-05T19:06:58.025Z,95665.94
2022-12-05T19:09:29.335Z,95661.91
2022-12-05T19:12:01.111Z,95660.00
2022-12-05T19:14:33.412Z,95663.28
2022-12-05T19:17:08.472Z,95659.66
2022-12-05T19:19:48.465Z,95662.53
2022-12-05T19:22:20.052Z,95664.13
2022-12-05T19:24:49.470Z,95658.47
2022-12-05T19:27:19.581Z,95662.31
2022-12-05T19:29:48.820Z,95657.28
2022-12-05T19:32:23.736Z,95660.28
2022-12-05T19:34:54.633Z,95657.22
2022-12-05T19:37:25.509Z,95656.63
2022-12-05T19:39:55.913Z,95660.50
2022-12-05T19:42:25.241Z,95648.19
2022-12-05T19:44:54.902Z,95652.44
2022-12-05T19:47:24.157Z,95645.13
2022-12-05T19:49:55.086Z,95640.84
2022-12-05T19:52:24.347Z,95638.41
2022-12-05T19:54:54.034Z,95647.06
2022-12-05T19:57:29.706Z,95632.31
2022-12-05T20:00:01.905Z,95638.41
2022-12-05T20:02:44.830Z,95628.63
2022-12-05T20:05:18.873Z,95630.88
2022-12-05T20:07:48.281Z,95640.78
2022-12-05T20:10:17.844Z,95641.75
2022-12-05T20:12:47.791Z,95632.22
2022-12-05T20:15:17.354Z,95632.81
2022-12-05T20:17:51.635Z,95636.81
2022-12-05T20:20:28.643Z,95630.56
2022-12-05T20:22:58.007Z,95629.72
2022-12-05T20:25:27.532Z,95627.72
2022-12-05T20:27:57.776Z,95630.97
2022-12-05T20:30:27.420Z,95633.19
2022-12-05T20:32:56.642Z,95627.34
2022-12-05T20:35:29.639Z,95621.91
2022-12-05T20:37:58.983Z,95627.16
2022-12-05T20:40:28.442Z,95623.53
2022-12-05T20:42:57.673Z,95624.97
2022-12-05T20:45:26.870Z,95620.69
2022-12-05T20:47:56.254Z,95616.84
2022-12-05T20:50:26.112Z,95613.63
2022-12-05T20:52:56.965Z,95615.25
2022-12-05T20:55:26.183Z,95608.59
2022-12-05T20:57:55.506Z,95603.91
2022-12-05T21:00:25.051Z,95601.66
2022-12-05T21:02:54.316Z,95601.66
2022-12-05T21:05:24.859Z,95605.34
2022-12-05T21:07:54.581Z,95591.56
2022-12-05T21:10:26.004Z,95584.88
2022-12-05T21:12:55.895Z,95588.31
2022-12-05T21:15:24.962Z,95598.13
2022-12-05T21:17:54.243Z,95598.25
2022-12-05T21:20:23.498Z,95586.44
2022-12-05T21:22:52.919Z,95584.88
2022-12-05T21:25:22.081Z,95580.66
2022-12-05T21:27:53.784Z,95585.63
2022-12-05T21:30:22.933Z,95577.06
2022-12-05T21:32:52.344Z,95566.94
2022-12-05T21:35:22.771Z,95570.56
2022-12-05T21:37:52.117Z,95572.28
2022-12-05T21:40:21.344Z,95561.75
2022-12-05T21:42:50.711Z,95567.97
2022-12-05T21:45:22.058Z,95573.00
2022-12-05T21:47:52.004Z,95573.47
2022-12-05T21:50:21.862Z,95569.22
2022-12-05T21:52:51.034Z,95571.09
2022-12-05T21:55:20.396Z,95575.56
2022-12-05T21:57:49.535Z,95578.91
2022-12-05T22:00:19.328Z,95587.69
2022-12-05T22:02:51.364Z,95581.00
2022-12-05T22:05:21.263Z,95577.00
2022-12-05T22:07:51.261Z,95580.03
2022-12-05T22:10:20.397Z,95575.56
2022-12-05T22:16:32.863Z,95561.19
2022-12-05T22:19:05.156Z,95565.06
2022-12-05T22:21:34.851Z,95562.94
2022-12-05T22:24:04.791Z,95562.66
2022-12-05T22:26:34.715Z,95562.03
2022-12-05T22:29:04.114Z,95556.59
2022-12-05T22:31:33.587Z,95553.59
2022-12-05T22:34:04.114Z,95557.69
2022-12-05T22:36:33.278Z,95559.78
2022-12-05T22:39:03.690Z,95561.59
2022-12-05T22:41:33.458Z,95560.22
2022-12-05T22:44:02.730Z,95557.75
2022-12-05T22:46:32.647Z,95557.78
2022-12-05T22:49:05.441Z,95547.91
2022-12-05T22:51:35.689Z,95556.22
2022-12-05T22:54:05.607Z,95549.97
2022-12-05T22:56:35.351Z,95546.53
2022-12-05T22:59:04.429Z,95540.25
2022-12-05T23:01:35.171Z,95539.06
2022-12-05T23:04:07.540Z,95545.38
2022-12-05T23:06:37.635Z,95538.06
2022-12-05T23:09:10.930Z,95538.06
2022-12-05T23:11:40.818Z,95536.69
2022-12-05T23:14:10.004Z,95532.03
2022-12-05T23:16:40.817Z,95517.47
2022-12-05T23:19:12.362Z,95524.47
2022-12-05T23:21:42.073Z,95514.16
2022-12-05T23:24:13.224Z,95516.56
2022-12-05T23:26:44.507Z,95521.63
2022-12-05T23:29:15.374Z,95511.72
2022-12-05T23:31:44.957Z,95518.00
2022-12-05T23:34:17.588Z,95513.78
2022-12-05T23:36:46.786Z,95502.25
2022-12-05T23:39:16.066Z,95497.19
2022-12-05T23:41:46.941Z,95504.69
2022-12-05T23:44:16.205Z,95509.75
2022-12-05T23:46:45.331Z,95505.31
2022-12-05T23:49:16.586Z,95498.00
2022-12-05T23:51:45.712Z,95495.00
2022-12-05T23:54:17.217Z,95497.00
2022-12-05T23:56:46.961Z,95507.13
2022-12-05T23:59:16.204Z,95504.50
